sensor_id;sensor_type;location;lat;lon;timestamp;pressure;altitude;pressure_sealevel;temperature;humidity
6090;BME280;3073;42.660;23.316;2023-10-08T00:01:18;94961.59;;;19.98;40.54
6090;BME280;3073;42.660;23.316;2023-10-08T00:03:46;94963.25;;;19.57;41.12
6090;BME280;3073;42.660;23.316;2023-10-08T00:06:14;94959.25;;;19.83;40.94
6090;BME280;3073;42.660;23.316;2023-10-08T00:08:47;94950.34;;;19.89;40.80
6090;BME280;3073;42.660;23.316;2023-10-08T00:11:17;94943.63;;;19.88;40.73
6090;BME280;3073;42.660;23.316;2023-10-08T00:13:44;94953.97;;;19.88;40.59
6090;BME280;3073;42.660;23.316;2023-10-08T00:16:15;94939.81;;;19.99;40.73
6090;BME280;3073;42.660;23.316;2023-10-08T00:18:43;94944.69;;;19.69;41.24
6090;BME280;3073;42.660;23.316;2023-10-08T00:21:16;94939.34;;;19.97;40.80
6090;BME280;3073;42.660;23.316;2023-10-08T00:23:45;94938.44;;;20.21;40.26
6090;BME280;3073;42.660;23.316;2023-10-08T00:26:15;94934.50;;;20.23;40.34
6090;BME280;3073;42.660;23.316;2023-10-08T00:28:46;94932.50;;;20.20;39.93
6090;BME280;3073;42.660;23.316;2023-10-08T00:31:15;94933.81;;;20.36;39.89
6090;BME280;3073;42.660;23.316;2023-10-08T00:33:43;94927.38;;;20.34;40.44
6090;BME280;3073;42.660;23.316;2023-10-08T00:36:10;94934.22;;;19.92;40.90
6090;BME280;3073;42.660;23.316;2023-10-08T00:38:44;94934.75;;;19.94;41.08
6090;BME280;3073;42.660;23.316;2023-10-08T00:41:15;94935.88;;;19.70;41.36
6090;BME280;3073;42.660;23.316;2023-10-08T00:43:42;94927.19;;;19.23;42.41
6090;BME280;3073;42.660;23.316;2023-10-08T00:46:10;94930.13;;;19.35;42.01
6090;BME280;3073;42.660;23.316;2023-10-08T00:48:46;94923.34;;;19.39;42.23
6090;BME280;3073;42.660;23.316;2023-10-08T00:51:15;94926.81;;;19.53;42.31
6090;BME280;3073;42.660;23.316;2023-10-08T00:53:54;94925.94;;;19.58;41.97
6090;BME280;3073;42.660;23.316;2023-10-08T00:56:24;94923.84;;;19.60;41.28
6090;BME280;3073;42.660;23.316;2023-10-08T00:59:09;94916.34;;;18.79;43.02
6090;BME280;3073;42.660;23.316;2023-10-08T01:01:40;94921.38;;;19.13;42.30
6090;BME280;3073;42.660;23.316;2023-10-08T01:04:17;94909.72;;;19.34;42.31
6090;BME280;3073;42.660;23.316;2023-10-08T01:06:51;94906.56;;;19.37;42.04
6090;BME280;3073;42.660;23.316;2023-10-08T01:09:21;94912.69;;;19.78;41.67
6090;BME280;3073;42.660;23.316;2023-10-08T01:12:11;94916.53;;;20.13;41.27
6090;BME280;3073;42.660;23.316;2023-10-08T01:14:41;94919.50;;;20.07;41.32
6090;BME280;3073;42.660;23.316;2023-10-08T01:17:15;94916.44;;;20.04;41.38
6090;BME280;3073;42.660;23.316;2023-10-08T01:19:46;94914.56;;;20.24;40.99
6090;BME280;3073;42.660;23.316;2023-10-08T01:22:17;94909.94;;;19.75;41.52
6090;BME280;3073;42.660;23.316;2023-10-08T01:24:47;94912.34;;;19.85;41.72
6090;BME280;3073;42.660;23.316;2023-10-08T01:27:14;94912.22;;;19.76;41.47
6090;BME280;3073;42.660;23.316;2023-10-08T01:29:47;94912.75;;;19.41;42.51
6090;BME280;3073;42.660;23.316;2023-10-08T01:32:15;94911.34;;;19.67;42.14
6090;BME280;3073;42.660;23.316;2023-10-08T01:34:42;94909.69;;;19.90;41.45
6090;BME280;3073;42.660;23.316;2023-10-08T01:37:12;94920.41;;;19.83;41.52
6090;BME280;3073;42.660;23.316;2023-10-08T01:39:41;94920.56;;;19.73;41.81
6090;BME280;3073;42.660;23.316;2023-10-08T01:42:08;94921.97;;;19.66;41.73
6090;BME280;3073;42.660;23.316;2023-10-08T01:44:42;94922.25;;;19.64;41.83
6090;BME280;3073;42.660;23.316;2023-10-08T01:47:11;94918.53;;;19.51;41.21
6090;BME280;3073;42.660;23.316;2023-10-08T01:49:38;94920.91;;;19.11;41.69
6090;BME280;3073;42.660;23.316;2023-10-08T01:52:05;94920.06;;;18.91;42.71
6090;BME280;3073;42.660;23.316;2023-10-08T01:54:32;94926.91;;;19.25;41.59
6090;BME280;3073;42.660;23.316;2023-10-08T01:57:02;94920.72;;;19.02;42.10
6090;BME280;3073;42.660;23.316;2023-10-08T01:59:31;94919.91;;;19.25;41.91
6090;BME280;3073;42.660;23.316;2023-10-08T02:01:58;94914.25;;;19.23;41.38
6090;BME280;3073;42.660;23.316;2023-10-08T02:04:24;94922.88;;;19.37;41.70
6090;BME280;3073;42.660;23.316;2023-10-08T02:06:51;94924.59;;;19.05;42.12
6090;BME280;3073;42.660;23.316;2023-10-08T02:09:18;94913.72;;;18.60;42.49
6090;BME280;3073;42.660;23.316;2023-10-08T02:11:51;94920.34;;;18.71;42.55
6090;BME280;3073;42.660;23.316;2023-10-08T02:14:20;94913.09;;;18.92;42.10
6090;BME280;3073;42.660;23.316;2023-10-08T02:16:48;94909.44;;;18.74;42.60
6090;BME280;3073;42.660;23.316;2023-10-08T02:19:17;94921.06;;;18.95;42.01
6090;BME280;3073;42.660;23.316;2023-10-08T02:21:52;94917.34;;;18.59;43.07
6090;BME280;3073;42.660;23.316;2023-10-08T02:24:20;94907.13;;;18.73;43.05
6090;BME280;3073;42.660;23.316;2023-10-08T02:26:50;94912.81;;;18.93;42.62
6090;BME280;3073;42.660;23.316;2023-10-08T02:29:17;94911.84;;;18.89;42.68
6090;BME280;3073;42.660;23.316;2023-10-08T02:31:45;94896.75;;;18.54;43.16
6090;BME280;3073;42.660;23.316;2023-10-08T02:34:13;94900.63;;;18.75;42.79
6090;BME280;3073;42.660;23.316;2023-10-08T02:36:40;94896.09;;;18.86;42.83
6090;BME280;3073;42.660;23.316;2023-10-08T02:39:08;94904.88;;;18.66;43.14
6090;BME280;3073;42.660;23.316;2023-10-08T02:41:39;94894.78;;;18.41;43.62
6090;BME280;3073;42.660;23.316;2023-10-08T02:44:08;94895.19;;;18.53;43.73
6090;BME280;3073;42.660;23.316;2023-10-08T02:46:39;94895.44;;;19.18;42.55
6090;BME280;3073;42.660;23.316;2023-10-08T02:49:08;94894.16;;;19.15;42.56
6090;BME280;3073;42.660;23.316;2023-10-08T02:51:39;94908.00;;;18.87;42.68
6090;BME280;3073;42.660;23.316;2023-10-08T02:54:07;94903.91;;;19.23;42.37
6090;BME280;3073;42.660;23.316;2023-10-08T02:56:42;94906.63;;;19.32;42.50
6090;BME280;3073;42.660;23.316;2023-10-08T02:59:10;94903.44;;;18.79;43.31
6090;BME280;3073;42.660;23.316;2023-10-08T03:01:37;94908.72;;;18.69;43.68
6090;BME280;3073;42.660;23.316;2023-10-08T03:04:05;94912.47;;;18.58;43.97
6090;BME280;3073;42.660;23.316;2023-10-08T03:06:41;94905.56;;;18.24;44.52
6090;BME280;3073;42.660;23.316;2023-10-08T03:09:08;94910.28;;;17.83;45.13
6090;BME280;3073;42.660;23.316;2023-10-08T03:11:35;94909.41;;;17.64;45.80
6090;BME280;3073;42.660;23.316;2023-10-08T03:14:02;94912.63;;;16.92;47.36
6090;BME280;3073;42.660;23.316;2023-10-08T03:16:30;94902.25;;;17.07;47.28
6090;BME280;3073;42.660;23.316;2023-10-08T03:19:00;94914.16;;;17.42;46.59
6090;BME280;3073;42.660;23.316;2023-10-08T03:21:28;94895.31;;;17.41;46.97
6090;BME280;3073;42.660;23.316;2023-10-08T03:24:23;94900.25;;;16.94;47.92
6090;BME280;3073;42.660;23.316;2023-10-08T03:27:05;94898.84;;;17.17;47.60
6090;BME280;3073;42.660;23.316;2023-10-08T03:29:33;94886.03;;;18.08;45.49
6090;BME280;3073;42.660;23.316;2023-10-08T03:32:06;94893.25;;;18.40;45.15
6090;BME280;3073;42.660;23.316;2023-10-08T03:34:38;94897.78;;;18.53;44.96
6090;BME280;3073;42.660;23.316;2023-10-08T03:37:09;94893.16;;;18.45;44.93
6090;BME280;3073;42.660;23.316;2023-10-08T03:39:46;94894.88;;;18.31;45.06
6090;BME280;3073;42.660;23.316;2023-10-08T03:42:26;94891.81;;;18.76;44.98
6090;BME280;3073;42.660;23.316;2023-10-08T03:44:59;94889.50;;;18.27;45.33
6090;BME280;3073;42.660;23.316;2023-10-08T03:47:36;94883.88;;;18.20;45.58
6090;BME280;3073;42.660;23.316;2023-10-08T03:50:04;94876.84;;;18.55;45.54
6090;BME280;3073;42.660;23.316;2023-10-08T03:52:34;94877.13;;;18.48;45.77
6090;BME280;3073;42.660;23.316;2023-10-08T03:55:06;94866.91;;;18.38;45.84
6090;BME280;3073;42.660;23.316;2023-10-08T03:57:47;94866.13;;;18.85;44.52
6090;BME280;3073;42.660;23.316;2023-10-08T04:00:22;94866.78;;;18.72;45.07
6090;BME280;3073;42.660;23.316;2023-10-08T04:02:57;94873.00;;;18.94;44.97
6090;BME280;3073;42.660;23.316;2023-10-08T04:05:26;94872.00;;;18.90;44.88
6090;BME280;3073;42.660;23.316;2023-10-08T04:07:58;94878.22;;;19.08;44.73
6090;BME280;3073;42.660;23.316;2023-10-08T04:10:51;94861.81;;;18.57;45.19
6090;BME280;3073;42.660;23.316;2023-10-08T04:14:07;94863.03;;;18.35;45.12
6090;BME280;3073;42.660;23.316;2023-10-08T04:16:34;94868.53;;;19.37;43.75
6090;BME280;3073;42.660;23.316;2023-10-08T04:19:02;94870.06;;;19.57;43.49
6090;BME280;3073;42.660;23.316;2023-10-08T04:21:29;94869.81;;;18.79;44.52
6090;BME280;3073;42.660;23.316;2023-10-08T04:23:59;94869.97;;;19.62;42.81
6090;BME280;3073;42.660;23.316;2023-10-08T04:26:30;94869.34;;;19.70;43.01
6090;BME280;3073;42.660;23.316;2023-10-08T04:28:59;94867.38;;;19.62;43.64
6090;BME280;3073;42.660;23.316;2023-10-08T04:31:30;94864.25;;;19.09;44.18
6090;BME280;3073;42.660;23.316;2023-10-08T04:34:03;94866.28;;;18.93;43.94
6090;BME280;3073;42.660;23.316;2023-10-08T04:36:35;94864.03;;;19.06;44.11
6090;BME280;3073;42.660;23.316;2023-10-08T04:39:03;94864.16;;;18.29;45.36
6090;BME280;3073;42.660;23.316;2023-10-08T04:41:40;94868.78;;;18.80;44.97
6090;BME280;3073;42.660;23.316;2023-10-08T04:44:09;94870.91;;;19.34;43.58
6090;BME280;3073;42.660;23.316;2023-10-08T04:46:40;94875.97;;;19.44;43.78
6090;BME280;3073;42.660;23.316;2023-10-08T04:49:13;94880.13;;;19.02;44.98
6090;BME280;3073;42.660;23.316;2023-10-08T04:51:54;94874.31;;;18.92;44.54
6090;BME280;3073;42.660;23.316;2023-10-08T04:54:24;94884.00;;;19.42;44.00
6090;BME280;3073;42.660;23.316;2023-10-08T04:56:57;94882.00;;;19.16;44.18
6090;BME280;3073;42.660;23.316;2023-10-08T04:59:25;94875.78;;;19.17;44.24
6090;BME280;3073;42.660;23.316;2023-10-08T05:01:59;94885.44;;;19.30;44.22
6090;BME280;3073;42.660;23.316;2023-10-08T05:04:54;94878.03;;;19.05;43.64
6090;BME280;3073;42.660;23.316;2023-10-08T05:07:48;94883.75;;;18.59;44.40
6090;BME280;3073;42.660;23.316;2023-10-08T05:10:27;94885.53;;;19.43;43.44
6090;BME280;3073;42.660;23.316;2023-10-08T05:13:11;94885.06;;;18.99;44.40
6090;BME280;3073;42.660;23.316;2023-10-08T05:15:56;94880.16;;;18.55;45.08
6090;BME280;3073;42.660;23.316;2023-10-08T05:18:37;94886.97;;;19.12;44.16
6090;BME280;3073;42.660;23.316;2023-10-08T05:21:21;94887.00;;;18.88;45.27
6090;BME280;3073;42.660;23.316;2023-10-08T05:24:06;94879.56;;;19.06;44.53
6090;BME280;3073;42.660;23.316;2023-10-08T05:26:39;94883.06;;;20.17;42.36
6090;BME280;3073;42.660;23.316;2023-10-08T05:29:11;94887.22;;;20.72;42.09
6090;BME280;3073;42.660;23.316;2023-10-08T05:31:54;94889.72;;;21.04;41.09
6090;BME280;3073;42.660;23.316;2023-10-08T05:34:35;94897.34;;;21.59;39.99
6090;BME280;3073;42.660;23.316;2023-10-08T05:37:09;94898.91;;;22.04;39.68
6090;BME280;3073;42.660;23.316;2023-10-08T05:39:56;94897.72;;;21.44;40.51
6090;BME280;3073;42.660;23.316;2023-10-08T05:42:36;94902.81;;;22.55;38.65
6090;BME280;3073;42.660;23.316;2023-10-08T05:45:13;94899.03;;;21.99;38.64
6090;BME280;3073;42.660;23.316;2023-10-08T05:47:55;94899.03;;;22.30;38.62
6090;BME280;3073;42.660;23.316;2023-10-08T05:50:40;94903.59;;;21.94;38.66
6090;BME280;3073;42.660;23.316;2023-10-08T05:53:20;94906.16;;;22.16;38.87
6090;BME280;3073;42.660;23.316;2023-10-08T05:56:08;94913.56;;;22.00;38.88
6090;BME280;3073;42.660;23.316;2023-10-08T05:58:53;94917.94;;;21.33;39.17
6090;BME280;3073;42.660;23.316;2023-10-08T06:01:27;94909.59;;;22.65;37.94
6090;BME280;3073;42.660;23.316;2023-10-08T06:04:05;94912.19;;;23.30;37.10
6090;BME280;3073;42.660;23.316;2023-10-08T06:06:46;94911.78;;;22.40;38.38
6090;BME280;3073;42.660;23.316;2023-10-08T06:09:24;94910.09;;;23.40;37.28
6090;BME280;3073;42.660;23.316;2023-10-08T06:12:00;94904.16;;;22.83;37.71
6090;BME280;3073;42.660;23.316;2023-10-08T06:14:36;94903.34;;;23.65;36.50
6090;BME280;3073;42.660;23.316;2023-10-08T06:17:20;94896.69;;;22.90;37.43
6090;BME280;3073;42.660;23.316;2023-10-08T06:20:21;94900.41;;;24.18;36.21
6090;BME280;3073;42.660;23.316;2023-10-08T06:22:51;94890.31;;;23.74;36.43
6090;BME280;3073;42.660;23.316;2023-10-08T06:25:26;94889.00;;;24.31;36.08
6090;BME280;3073;42.660;23.316;2023-10-08T06:27:53;94885.78;;;24.64;35.23
6090;BME280;3073;42.660;23.316;2023-10-08T06:30:21;94899.34;;;25.16;34.87
6090;BME280;3073;42.660;23.316;2023-10-08T06:32:51;94900.88;;;25.79;34.25
6090;BME280;3073;42.660;23.316;2023-10-08T06:35:19;94896.66;;;26.19;34.21
6090;BME280;3073;42.660;23.316;2023-10-08T06:37:51;94903.16;;;26.13;34.17
6090;BME280;3073;42.660;23.316;2023-10-08T06:40:20;94906.44;;;26.67;33.02
6090;BME280;3073;42.660;23.316;2023-10-08T06:43:06;94897.22;;;27.34;32.88
6090;BME280;3073;42.660;23.316;2023-10-08T06:45:41;94896.66;;;27.40;32.15
6090;BME280;3073;42.660;23.316;2023-10-08T06:48:10;94893.75;;;27.18;32.04
6090;BME280;3073;42.660;23.316;2023-10-08T06:50:44;94898.69;;;26.58;32.60
6090;BME280;3073;42.660;23.316;2023-10-08T06:53:11;94892.59;;;27.43;32.03
6090;BME280;3073;42.660;23.316;2023-10-08T06:55:39;94897.69;;;27.91;31.93
6090;BME280;3073;42.660;23.316;2023-10-08T06:58:07;94889.72;;;28.16;31.48
6090;BME280;3073;42.660;23.316;2023-10-08T07:00:35;94892.84;;;28.99;30.77
6090;BME280;3073;42.660;23.316;2023-10-08T07:03:10;94891.94;;;28.60;30.49
6090;BME280;3073;42.660;23.316;2023-10-08T07:05:40;94891.25;;;27.89;31.61
6090;BME280;3073;42.660;23.316;2023-10-08T07:08:10;94893.31;;;29.21;30.81
6090;BME280;3073;42.660;23.316;2023-10-08T07:10:39;94886.03;;;29.87;29.35
6090;BME280;3073;42.660;23.316;2023-10-08T07:13:08;94889.47;;;30.10;29.23
6090;BME280;3073;42.660;23.316;2023-10-08T07:15:35;94883.97;;;29.39;29.94
6090;BME280;3073;42.660;23.316;2023-10-08T07:18:06;94887.97;;;29.90;29.22
6090;BME280;3073;42.660;23.316;2023-10-08T07:20:44;94886.38;;;29.28;29.79
6090;BME280;3073;42.660;23.316;2023-10-08T07:23:11;94885.25;;;30.74;28.63
6090;BME280;3073;42.660;23.316;2023-10-08T07:25:55;94881.44;;;30.45;28.65
6090;BME280;3073;42.660;23.316;2023-10-08T07:28:36;94873.72;;;31.08;27.77
6090;BME280;3073;42.660;23.316;2023-10-08T07:31:05;94871.56;;;31.77;27.28
6090;BME280;3073;42.660;23.316;2023-10-08T07:33:35;94879.13;;;31.49;26.72
6090;BME280;3073;42.660;23.316;2023-10-08T07:36:03;94862.44;;;31.71;26.16
6090;BME280;3073;42.660;23.316;2023-10-08T07:38:39;94861.34;;;32.09;26.51
6090;BME280;3073;42.660;23.316;2023-10-08T07:41:07;94858.97;;;32.00;26.46
6090;BME280;3073;42.660;23.316;2023-10-08T07:43:34;94853.69;;;31.63;26.18
6090;BME280;3073;42.660;23.316;2023-10-08T07:46:01;94849.34;;;32.15;25.30
6090;BME280;3073;42.660;23.316;2023-10-08T07:48:27;94845.16;;;31.14;24.40
6090;BME280;3073;42.660;23.316;2023-10-08T07:50:56;94847.53;;;32.26;24.03
6090;BME280;3073;42.660;23.316;2023-10-08T07:53:24;94842.13;;;31.75;24.34
6090;BME280;3073;42.660;23.316;2023-10-08T07:56:04;94835.72;;;32.13;23.59
6090;BME280;3073;42.660;23.316;2023-10-08T07:58:32;94844.41;;;30.61;23.89
6090;BME280;3073;42.660;23.316;2023-10-08T08:01:03;94837.50;;;31.65;23.39
6090;BME280;3073;42.660;23.316;2023-10-08T08:03:31;94834.88;;;30.79;23.91
6090;BME280;3073;42.660;23.316;2023-10-08T08:06:00;94826.50;;;30.25;24.05
6090;BME280;3073;42.660;23.316;2023-10-08T08:08:28;94827.34;;;30.29;24.03
6090;BME280;3073;42.660;23.316;2023-10-08T08:10:55;94822.84;;;30.33;23.86
6090;BME280;3073;42.660;23.316;2023-10-08T08:13:26;94819.66;;;31.22;23.90
6090;BME280;3073;42.660;23.316;2023-10-08T08:15:56;94817.81;;;31.26;23.21
6090;BME280;3073;42.660;23.316;2023-10-08T08:18:26;94823.56;;;30.30;24.24
6090;BME280;3073;42.660;23.316;2023-10-08T08:21:00;94817.78;;;30.43;23.79
6090;BME280;3073;42.660;23.316;2023-10-08T08:23:30;94811.59;;;31.11;23.29
6090;BME280;3073;42.660;23.316;2023-10-08T08:25:58;94819.16;;;31.46;23.58
6090;BME280;3073;42.660;23.316;2023-10-08T08:28:38;94811.16;;;31.05;23.97
6090;BME280;3073;42.660;23.316;2023-10-08T08:31:06;94813.00;;;31.64;23.66
6090;BME280;3073;42.660;23.316;2023-10-08T08:33:42;94810.06;;;31.77;23.47
6090;BME280;3073;42.660;23.316;2023-10-08T08:36:26;94810.13;;;32.21;22.88
6090;BME280;3073;42.660;23.316;2023-10-08T08:38:54;94806.97;;;32.04;22.91
6090;BME280;3073;42.660;23.316;2023-10-08T08:41:21;94799.06;;;32.04;23.44
6090;BME280;3073;42.660;23.316;2023-10-08T08:43:50;94806.31;;;30.32;24.38
6090;BME280;3073;42.660;23.316;2023-10-08T08:46:27;94802.34;;;29.54;25.01
6090;BME280;3073;42.660;23.316;2023-10-08T08:48:55;94794.19;;;29.02;25.44
6090;BME280;3073;42.660;23.316;2023-10-08T08:51:24;94802.16;;;29.86;24.95
6090;BME280;3073;42.660;23.316;2023-10-08T08:53:51;94794.38;;;29.51;25.12
6090;BME280;3073;42.660;23.316;2023-10-08T08:56:21;94792.34;;;30.28;24.79
6090;BME280;3073;42.660;23.316;2023-10-08T08:58:49;94795.59;;;30.44;25.11
6090;BME280;3073;42.660;23.316;2023-10-08T09:01:16;94804.09;;;30.34;25.08
6090;BME280;3073;42.660;23.316;2023-10-08T09:03:46;94783.28;;;29.23;25.72
6090;BME280;3073;42.660;23.316;2023-10-08T09:06:14;94766.41;;;26.89;27.71
6090;BME280;3073;42.660;23.316;2023-10-08T09:08:40;94802.09;;;28.86;26.44
6090;BME280;3073;42.660;23.316;2023-10-08T09:11:14;94793.59;;;28.58;26.08
6090;BME280;3073;42.660;23.316;2023-10-08T09:13:43;94797.56;;;29.22;25.74
6090;BME280;3073;42.660;23.316;2023-10-08T09:16:12;94775.28;;;29.54;25.59
6090;BME280;3073;42.660;23.316;2023-10-08T09:18:42;94788.31;;;30.90;24.67
6090;BME280;3073;42.660;23.316;2023-10-08T09:21:14;94778.44;;;30.54;24.12
6090;BME280;3073;42.660;23.316;2023-10-08T09:23:41;94784.56;;;31.91;23.66
6090;BME280;3073;42.660;23.316;2023-10-08T09:26:10;94782.00;;;31.58;23.72
6090;BME280;3073;42.660;23.316;2023-10-08T09:28:40;94778.72;;;32.59;23.44
6090;BME280;3073;42.660;23.316;2023-10-08T09:31:11;94785.94;;;32.62;23.11
6090;BME280;3073;42.660;23.316;2023-10-08T09:33:39;94785.91;;;31.38;23.49
6090;BME280;3073;42.660;23.316;2023-10-08T09:36:07;94778.47;;;32.28;23.56
6090;BME280;3073;42.660;23.316;2023-10-08T09:38:36;94773.56;;;31.45;24.09
6090;BME280;3073;42.660;23.316;2023-10-08T09:41:03;94777.09;;;32.00;23.68
6090;BME280;3073;42.660;23.316;2023-10-08T09:43:34;94764.84;;;32.19;23.17
6090;BME280;3073;42.660;23.316;2023-10-08T09:46:09;94774.81;;;32.43;23.49
6090;BME280;3073;42.660;23.316;2023-10-08T09:48:41;94769.16;;;31.56;23.26
6090;BME280;3073;42.660;23.316;2023-10-08T09:51:11;94765.31;;;31.87;23.55
6090;BME280;3073;42.660;23.316;2023-10-08T09:53:52;94761.41;;;33.77;22.61
6090;BME280;3073;42.660;23.316;2023-10-08T09:56:24;94758.28;;;33.43;22.48
6090;BME280;3073;42.660;23.316;2023-10-08T09:58:54;94758.81;;;31.07;24.01
6090;BME280;3073;42.660;23.316;2023-10-08T10:01:21;94753.59;;;30.81;24.37
6090;BME280;3073;42.660;23.316;2023-10-08T10:03:50;94758.81;;;31.07;23.91
6090;BME280;3073;42.660;23.316;2023-10-08T10:06:18;94748.06;;;30.63;24.46
6090;BME280;3073;42.660;23.316;2023-10-08T10:08:47;94746.44;;;31.85;23.98
6090;BME280;3073;42.660;23.316;2023-10-08T10:11:15;94750.78;;;32.58;23.38
6090;BME280;3073;42.660;23.316;2023-10-08T10:13:45;94739.84;;;32.05;23.72
6090;BME280;3073;42.660;23.316;2023-10-08T10:16:17;94748.66;;;32.85;23.19
6090;BME280;3073;42.660;23.316;2023-10-08T10:18:44;94743.91;;;33.30;23.39
6090;BME280;3073;42.660;23.316;2023-10-08T10:21:30;94742.09;;;34.47;23.03
6090;BME280;3073;42.660;23.316;2023-10-08T10:23:58;94721.28;;;34.52;22.31
6090;BME280;3073;42.660;23.316;2023-10-08T10:26:26;94735.94;;;33.16;22.40
6090;BME280;3073;42.660;23.316;2023-10-08T10:29:21;94729.50;;;32.41;23.33
6090;BME280;3073;42.660;23.316;2023-10-08T10:31:52;94723.28;;;32.12;23.61
6090;BME280;3073;42.660;23.316;2023-10-08T10:34:22;94722.66;;;33.05;22.74
6090;BME280;3073;42.660;23.316;2023-10-08T10:36:52;94713.38;;;34.21;22.55
6090;BME280;3073;42.660;23.316;2023-10-08T10:39:25;94716.41;;;33.91;22.77
6090;BME280;3073;42.660;23.316;2023-10-08T10:41:56;94705.31;;;34.70;22.69
6090;BME280;3073;42.660;23.316;2023-10-08T10:44:27;94716.03;;;33.85;22.75
6090;BME280;3073;42.660;23.316;2023-10-08T10:46:55;94709.94;;;34.09;22.63
6090;BME280;3073;42.660;23.316;2023-10-08T10:49:49;94699.59;;;32.98;23.73
6090;BME280;3073;42.660;23.316;2023-10-08T10:52:22;94693.63;;;32.40;24.42
6090;BME280;3073;42.660;23.316;2023-10-08T10:54:59;94697.84;;;31.12;25.66
6090;BME280;3073;42.660;23.316;2023-10-08T10:57:44;94687.56;;;31.00;25.85
6090;BME280;3073;42.660;23.316;2023-10-08T11:00:11;94689.72;;;30.95;25.58
6090;BME280;3073;42.660;23.316;2023-10-08T11:03:05;94687.84;;;30.36;26.23
6090;BME280;3073;42.660;23.316;2023-10-08T11:05:42;94681.91;;;30.69;26.44
6090;BME280;3073;42.660;23.316;2023-10-08T11:08:15;94690.59;;;31.83;25.39
6090;BME280;3073;42.660;23.316;2023-10-08T11:10:44;94698.16;;;32.36;25.02
6090;BME280;3073;42.660;23.316;2023-10-08T11:13:16;94678.38;;;31.61;25.45
6090;BME280;3073;42.660;23.316;2023-10-08T11:15:44;94677.47;;;32.52;25.01
6090;BME280;3073;42.660;23.316;2023-10-08T11:18:15;94681.59;;;31.88;25.32
6090;BME280;3073;42.660;23.316;2023-10-08T11:20:43;94679.25;;;33.24;24.63
6090;BME280;3073;42.660;23.316;2023-10-08T11:23:11;94671.75;;;31.85;25.53
6090;BME280;3073;42.660;23.316;2023-10-08T11:25:55;94664.47;;;30.31;26.74
6090;BME280;3073;42.660;23.316;2023-10-08T11:28:26;94657.69;;;31.30;25.89
6090;BME280;3073;42.660;23.316;2023-10-08T11:30:54;94657.50;;;32.58;25.13
6090;BME280;3073;42.660;23.316;2023-10-08T11:33:24;94664.88;;;31.73;25.63
6090;BME280;3073;42.660;23.316;2023-10-08T11:35:57;94651.56;;;32.10;25.67
6090;BME280;3073;42.660;23.316;2023-10-08T11:38:25;94654.38;;;30.66;26.96
6090;BME280;3073;42.660;23.316;2023-10-08T11:40:55;94645.78;;;30.73;26.96
6090;BME280;3073;42.660;23.316;2023-10-08T11:43:23;94658.78;;;31.22;26.97
6090;BME280;3073;42.660;23.316;2023-10-08T11:45:51;94646.56;;;30.73;27.36
6090;BME280;3073;42.660;23.316;2023-10-08T11:48:18;94657.03;;;30.40;27.65
6090;BME280;3073;42.660;23.316;2023-10-08T11:50:53;94648.91;;;30.82;27.52
6090;BME280;3073;42.660;23.316;2023-10-08T11:53:23;94658.09;;;31.32;26.79
6090;BME280;3073;42.660;23.316;2023-10-08T11:55:50;94654.78;;;30.68;27.51
6090;BME280;3073;42.660;23.316;2023-10-08T11:58:23;94653.78;;;29.94;28.68
6090;BME280;3073;42.660;23.316;2023-10-08T12:01:03;94653.09;;;29.74;28.50
6090;BME280;3073;42.660;23.316;2023-10-08T12:03:30;94651.56;;;29.96;28.79
6090;BME280;3073;42.660;23.316;2023-10-08T12:05:57;94642.00;;;30.10;28.46
6090;BME280;3073;42.660;23.316;2023-10-08T12:08:26;94642.63;;;29.29;29.24
6090;BME280;3073;42.660;23.316;2023-10-08T12:10:54;94644.06;;;30.24;28.55
6090;BME280;3073;42.660;23.316;2023-10-08T12:13:20;94633.94;;;29.51;28.71
6090;BME280;3073;42.660;23.316;2023-10-08T12:15:52;94641.38;;;30.21;27.97
6090;BME280;3073;42.660;23.316;2023-10-08T12:18:31;94640.06;;;29.36;28.57
6090;BME280;3073;42.660;23.316;2023-10-08T12:21:04;94633.97;;;29.28;28.99
6090;BME280;3073;42.660;23.316;2023-10-08T12:23:36;94622.41;;;29.59;29.34
6090;BME280;3073;42.660;23.316;2023-10-08T12:26:03;94643.47;;;30.38;28.29
6090;BME280;3073;42.660;23.316;2023-10-08T12:28:33;94636.72;;;30.70;27.60
6090;BME280;3073;42.660;23.316;2023-10-08T12:31:03;94645.78;;;31.02;27.74
6090;BME280;3073;42.660;23.316;2023-10-08T12:33:30;94640.03;;;31.34;27.34
6090;BME280;3073;42.660;23.316;2023-10-08T12:35:58;94646.00;;;30.57;27.95
6090;BME280;3073;42.660;23.316;2023-10-08T12:38:36;94637.16;;;30.16;28.93
6090;BME280;3073;42.660;23.316;2023-10-08T12:41:03;94634.53;;;29.41;29.51
6090;BME280;3073;42.660;23.316;2023-10-08T12:43:37;94657.09;;;30.73;28.46
6090;BME280;3073;42.660;23.316;2023-10-08T12:46:05;94652.28;;;31.56;27.42
6090;BME280;3073;42.660;23.316;2023-10-08T12:48:37;94660.56;;;30.47;28.26
6090;BME280;3073;42.660;23.316;2023-10-08T12:51:04;94647.63;;;30.39;28.47
6090;BME280;3073;42.660;23.316;2023-10-08T12:53:32;94630.94;;;29.49;29.33
6090;BME280;3073;42.660;23.316;2023-10-08T12:56:03;94638.06;;;29.48;29.41
6090;BME280;3073;42.660;23.316;2023-10-08T12:58:32;94625.25;;;29.73;28.97
6090;BME280;3073;42.660;23.316;2023-10-08T13:01:06;94631.78;;;29.34;29.88
6090;BME280;3073;42.660;23.316;2023-10-08T13:03:35;94628.03;;;29.57;29.45
6090;BME280;3073;42.660;23.316;2023-10-08T13:06:08;94635.88;;;29.54;29.88
6090;BME280;3073;42.660;23.316;2023-10-08T13:08:37;94633.88;;;30.82;28.23
6090;BME280;3073;42.660;23.316;2023-10-08T13:11:05;94638.81;;;32.16;27.10
6090;BME280;3073;42.660;23.316;2023-10-08T13:13:32;94636.81;;;32.81;26.72
6090;BME280;3073;42.660;23.316;2023-10-08T13:15:59;94623.06;;;32.44;26.61
6090;BME280;3073;42.660;23.316;2023-10-08T13:18:30;94624.53;;;31.69;27.17
6090;BME280;3073;42.660;23.316;2023-10-08T13:20:58;94624.44;;;30.81;27.88
6090;BME280;3073;42.660;23.316;2023-10-08T13:23:28;94608.56;;;30.41;27.83
6090;BME280;3073;42.660;23.316;2023-10-08T13:25:55;94604.78;;;29.86;28.45
6090;BME280;3073;42.660;23.316;2023-10-08T13:28:24;94608.59;;;29.88;29.29
6090;BME280;3073;42.660;23.316;2023-10-08T13:30:52;94607.25;;;30.28;29.03
6090;BME280;3073;42.660;23.316;2023-10-08T13:33:20;94602.84;;;29.56;29.35
6090;BME280;3073;42.660;23.316;2023-10-08T13:35:49;94601.06;;;30.17;28.50